createdAt,value
2022-12-05T00:02:33.833Z,16.88
2022-12-05T00:07:36.752Z,15.65
2022-12-05T00:12:40.719Z,16.52
2022-12-05T00:17:44.976Z,15.05
2022-12-05T00:22:48.107Z,14.48
2022-12-05T00:27:50.950Z,15.23
2022-12-05T00:32:55.078Z,15.43
2022-12-05T00:37:57.856Z,14.80
2022-12-05T00:43:00.683Z,14.13
2022-12-05T00:48:05.262Z,14.57
2022-12-05T00:53:08.055Z,14.55
2022-12-05T00:58:10.822Z,13.23
2022-12-05T01:03:15.149Z,13.95
2022-12-05T01:08:18.131Z,13.48
2022-12-05T01:13:20.965Z,14.38
2022-12-05T01:18:26.468Z,14.77
2022-12-05T01:23:29.258Z,13.27
2022-12-05T01:28:32.146Z,14.05
2022-12-05T01:33:36.980Z,13.30
2022-12-05T01:38:40.051Z,12.43
2022-12-05T01:43:58.052Z,13.23
2022-12-05T01:49:06.854Z,12.53
2022-12-05T01:54:11.325Z,13.23
2022-12-05T01:59:15.084Z,12.52
2022-12-05T02:04:19.340Z,12.35
2022-12-05T02:09:22.792Z,13.25
2022-12-05T02:14:38.434Z,13.30
2022-12-05T02:19:58.724Z,13.15
2022-12-05T02:25:37.051Z,14.65
2022-12-05T02:30:44.698Z,13.88
2022-12-05T02:35:56.340Z,14.33
2022-12-05T02:41:11.691Z,14.70
2022-12-05T02:46:19.943Z,15.60
2022-12-05T02:51:26.377Z,15.18
2022-12-05T02:56:33.819Z,15.20
2022-12-05T03:01:38.124Z,15.57
2022-12-05T03:06:44.097Z,14.80
2022-12-05T03:11:50.281Z,15.25
2022-12-05T03:17:00.068Z,15.70
2022-12-05T03:22:07.591Z,14.65
2022-12-05T03:27:18.713Z,14.10
2022-12-05T03:32:28.976Z,15.10
2022-12-05T03:43:11.757Z,16.40
2022-12-05T03:48:23.632Z,15.60
2022-12-05T03:53:29.954Z,17.20
2022-12-05T03:58:38.119Z,17.13
2022-12-05T04:03:46.464Z,16.60
2022-12-05T04:08:54.336Z,16.40
2022-12-05T04:14:01.129Z,16.33
2022-12-05T04:19:11.195Z,17.27
2022-12-05T04:24:49.071Z,16.88
2022-12-05T04:30:00.341Z,17.80
2022-12-05T04:35:12.317Z,17.70
2022-12-05T04:40:21.186Z,16.20
2022-12-05T04:45:26.801Z,17.98
2022-12-05T04:50:34.496Z,17.13
2022-12-05T04:55:41.065Z,16.90
2022-12-05T05:00:51.497Z,17.50
2022-12-05T05:06:01.771Z,16.95
2022-12-05T05:11:12.109Z,16.88
2022-12-05T05:16:19.285Z,17.35
2022-12-05T05:21:26.443Z,16.10
2022-12-05T05:26:30.419Z,16.52
2022-12-05T05:31:33.712Z,16.73
2022-12-05T05:36:39.154Z,16.67
2022-12-05T05:41:42.427Z,17.33
2022-12-05T05:46:45.404Z,17.17
2022-12-05T05:51:49.659Z,17.13
2022-12-05T05:56:52.734Z,18.20
2022-12-05T06:01:55.667Z,18.20
2022-12-05T06:07:00.418Z,16.42
2022-12-05T06:12:03.221Z,18.25
2022-12-05T06:17:06.120Z,19.88
2022-12-05T06:22:10.349Z,18.83
2022-12-05T06:27:13.237Z,20.13
2022-12-05T06:32:16.001Z,19.95
2022-12-05T06:37:20.209Z,18.95
2022-12-05T06:42:23.324Z,18.40
2022-12-05T06:47:26.277Z,19.83
2022-12-05T06:52:30.412Z,19.95
2022-12-05T06:57:33.531Z,18.45
2022-12-05T07:03:30.186Z,19.55
2022-12-05T07:08:48.500Z,19.00
2022-12-05T07:14:10.683Z,19.65
2022-12-05T07:26:13.081Z,21.92
2022-12-05T07:31:18.688Z,22.25
2022-12-05T07:36:23.610Z,22.15
2022-12-05T07:41:30.020Z,22.92
2022-12-05T07:46:33.699Z,22.48
2022-12-05T07:51:38.946Z,22.02
2022-12-05T07:56:47.956Z,19.02
2022-12-05T08:01:53.962Z,18.23
2022-12-05T08:06:56.891Z,16.27
2022-12-05T08:12:01.378Z,17.02
2022-12-05T08:17:07.100Z,16.48
2022-12-05T08:22:11.244Z,16.77
2022-12-05T08:27:15.895Z,14.45
2022-12-05T08:32:18.840Z,16.98
2022-12-05T08:37:21.772Z,15.63
2022-12-05T08:42:26.154Z,15.88
2022-12-05T08:47:29.875Z,17.45
2022-12-05T08:52:34.756Z,16.10
2022-12-05T08:57:39.268Z,14.63
2022-12-05T09:02:42.242Z,16.50
2022-12-05T09:07:45.427Z,15.45
2022-12-05T09:12:50.520Z,17.15
2022-12-05T09:18:06.556Z,18.50
2022-12-05T09:23:15.769Z,19.90
2022-12-05T09:28:28.077Z,18.63
2022-12-05T09:33:33.250Z,16.20
2022-12-05T09:38:42.466Z,16.40
2022-12-05T09:43:54.769Z,14.10
2022-12-05T09:49:00.222Z,14.48
2022-12-05T09:54:04.366Z,14.20
2022-12-05T09:59:20.541Z,15.52
2022-12-05T10:04:57.087Z,14.07
2022-12-05T10:10:40.895Z,13.43
2022-12-05T10:15:59.585Z,12.65
2022-12-05T10:27:23.539Z,11.23
2022-12-05T10:32:38.102Z,12.75
2022-12-05T10:38:12.234Z,12.30
2022-12-05T10:43:26.172Z,12.30
2022-12-05T10:48:42.473Z,13.23
2022-12-05T10:54:00.189Z,13.30
2022-12-05T11:04:46.749Z,12.60
2022-12-05T11:09:49.882Z,13.73
2022-12-05T11:15:11.877Z,14.13
2022-12-05T11:20:54.639Z,12.50
2022-12-05T11:31:44.361Z,14.35
2022-12-05T11:45:46.418Z,14.95
2022-12-05T11:52:20.772Z,13.32
2022-12-05T12:17:58.697Z,11.93
2022-12-05T13:04:33.477Z,9.57
2022-12-05T13:09:45.121Z,9.63
2022-12-05T13:14:56.583Z,10.23
2022-12-05T13:20:03.871Z,9.93
2022-12-05T13:25:08.441Z,10.57
2022-12-05T13:30:20.985Z,9.82
2022-12-05T13:42:19.366Z,10.13
2022-12-05T13:47:36.533Z,10.27
2022-12-05T13:53:03.410Z,8.88
2022-12-05T13:58:51.351Z,10.85
2022-12-05T14:03:59.657Z,9.60
2022-12-05T14:09:04.991Z,9.65
2022-12-05T14:14:27.836Z,9.80
2022-12-05T15:18:39.908Z,8.15
2022-12-05T15:23:45.670Z,7.70
2022-12-05T15:29:07.140Z,7.95
2022-12-05T15:34:22.287Z,7.85
2022-12-05T15:45:44.937Z,6.72
2022-12-05T15:56:59.176Z,7.35
2022-12-05T16:02:11.264Z,9.35
2022-12-05T16:07:16.664Z,8.60
2022-12-05T16:12:28.887Z,8.63
2022-12-05T16:17:43.769Z,8.52
2022-12-05T16:22:53.115Z,7.85
2022-12-05T16:28:01.944Z,7.72
2022-12-05T16:33:08.792Z,9.88
2022-12-05T16:38:16.283Z,8.23
2022-12-05T16:43:24.560Z,8.93
2022-12-05T16:48:29.428Z,8.30
2022-12-05T16:53:34.229Z,8.82
2022-12-05T16:58:37.024Z,9.45
2022-12-05T17:03:39.900Z,8.40
2022-12-05T17:08:44.054Z,7.85
2022-12-05T17:13:49.550Z,7.72
2022-12-05T17:18:52.586Z,8.20
2022-12-05T17:23:56.836Z,9.32
2022-12-05T17:28:59.793Z,8.85
2022-12-05T17:34:02.815Z,8.52
2022-12-05T17:39:08.828Z,7.97
2022-12-05T17:44:13.951Z,8.07
2022-12-05T17:49:17.877Z,7.85
2022-12-05T17:54:22.241Z,8.40
2022-12-05T17:59:25.092Z,8.15
2022-12-05T18:04:28.183Z,8.65
2022-12-05T18:09:32.908Z,8.93
2022-12-05T18:14:36.065Z,9.20
2022-12-05T18:19:39.637Z,9.13
2022-12-05T18:24:43.833Z,9.18
2022-12-05T18:29:48.589Z,9.38
2022-12-05T18:34:53.526Z,10.05
2022-12-05T18:39:57.833Z,10.20
2022-12-05T18:45:01.719Z,9.93
2022-12-05T18:50:05.465Z,9.43
2022-12-05T18:55:20.956Z,10.93
2022-12-05T19:00:31.625Z,11.15
2022-12-05T19:05:35.241Z,10.23
2022-12-05T19:10:39.446Z,10.88
2022-12-05T19:15:42.829Z,9.60
2022-12-05T19:21:21.028Z,10.65
2022-12-05T19:26:50.315Z,11.10
2022-12-05T19:31:53.422Z,12.57
2022-12-05T19:37:27.127Z,10.88
2022-12-05T19:42:39.524Z,11.07
2022-12-05T19:47:53.252Z,11.98
2022-12-05T19:53:20.635Z,11.95
2022-12-05T19:59:20.120Z,12.95
2022-12-05T20:11:36.421Z,12.43
2022-12-05T20:16:41.922Z,10.93
2022-12-05T20:22:07.636Z,10.73
2022-12-05T20:27:10.864Z,11.90
2022-12-05T20:32:18.685Z,12.55
2022-12-05T20:37:28.628Z,13.00
2022-12-05T20:42:46.636Z,11.40
2022-12-05T20:49:08.141Z,11.68
2022-12-05T20:54:27.980Z,12.05
2022-12-05T20:59:47.395Z,11.18
2022-12-05T21:05:55.685Z,13.57
2022-12-05T21:24:31.906Z,10.80
2022-12-05T21:41:53.618Z,12.32
2022-12-05T21:46:59.135Z,14.18
2022-12-05T21:52:03.109Z,11.55
2022-12-05T21:57:07.561Z,11.27
2022-12-05T22:02:11.126Z,12.30
2022-12-05T22:07:13.939Z,12.95
2022-12-05T22:12:18.270Z,12.23
2022-12-05T22:17:21.097Z,12.18
2022-12-05T22:22:24.061Z,12.27
2022-12-05T22:27:30.464Z,13.40
2022-12-05T22:32:33.428Z,13.48
2022-12-05T22:37:36.156Z,12.13
2022-12-05T22:42:40.324Z,11.75
2022-12-05T22:47:43.202Z,11.90
2022-12-05T22:52:45.957Z,12.93
2022-12-05T22:57:50.208Z,12.50
2022-12-05T23:02:54.040Z,12.32
2022-12-05T23:07:56.964Z,12.23
2022-12-05T23:13:01.278Z,12.48
2022-12-05T23:18:04.891Z,12.05
2022-12-05T23:23:07.774Z,12.80
2022-12-05T23:28:12.032Z,12.27
2022-12-05T23:33:14.977Z,13.20
2022-12-05T23:38:17.733Z,13.65
2022-12-05T23:43:21.873Z,13.80
2022-12-05T23:48:25.283Z,13.57
2022-12-05T23:53:29.154Z,14.20
2022-12-05T23:58:33.944Z,15.02
